sensor_id;sensor_type;location;lat;lon;timestamp;P1;durP1;ratioP1;P2;durP2;ratioP2
29320;SDS011;16323;51.130;6.612;2022-11-14T00:01:50;4.35;;;3.08;;
29320;SDS011;16323;51.130;6.612;2022-11-14T00:04:17;4.00;;;2.78;;
29320;SDS011;16323;51.130;6.612;2022-11-14T00:06:53;5.35;;;2.85;;
29320;SDS011;16323;51.130;6.612;2022-11-14T00:09:24;4.20;;;2.60;;
29320;SDS011;16323;51.130;6.612;2022-11-14T00:11:51;4.63;;;2.90;;
29320;SDS011;16323;51.130;6.612;2022-11-14T00:14:18;3.30;;;2.50;;
29320;SDS011;16323;51.130;6.612;2022-11-14T00:16:45;5.50;;;3.10;;
29320;SDS011;16323;51.130;6.612;2022-11-14T00:19:12;3.90;;;2.70;;
29320;SDS011;16323;51.130;6.612;2022-11-14T00:21:39;4.53;;;2.67;;
29320;SDS011;16323;51.130;6.612;2022-11-14T00:24:05;4.60;;;2.78;;
29320;SDS011;16323;51.130;6.612;2022-11-14T00:26:34;4.65;;;3.25;;
29320;SDS011;16323;51.130;6.612;2022-11-14T00:29:01;3.30;;;2.40;;
29320;SDS011;16323;51.130;6.612;2022-11-14T00:31:28;3.28;;;2.40;;
29320;SDS011;16323;51.130;6.612;2022-11-14T00:33:55;4.38;;;2.53;;
29320;SDS011;16323;51.130;6.612;2022-11-14T00:36:21;2.90;;;2.13;;
29320;SDS011;16323;51.130;6.612;2022-11-14T00:38:50;3.13;;;2.55;;
29320;SDS011;16323;51.130;6.612;2022-11-14T00:41:18;4.63;;;2.65;;
29320;SDS011;16323;51.130;6.612;2022-11-14T00:43:46;3.65;;;2.53;;
29320;SDS011;16323;51.130;6.612;2022-11-14T00:46:13;4.22;;;2.80;;
29320;SDS011;16323;51.130;6.612;2022-11-14T00:48:39;4.75;;;2.90;;
29320;SDS011;16323;51.130;6.612;2022-11-14T00:53:36;5.22;;;2.92;;
29320;SDS011;16323;51.130;6.612;2022-11-14T00:56:03;4.93;;;2.80;;
29320;SDS011;16323;51.130;6.612;2022-11-14T00:58:30;3.67;;;2.40;;
29320;SDS011;16323;51.130;6.612;2022-11-14T01:00:58;4.28;;;2.75;;
29320;SDS011;16323;51.130;6.612;2022-11-14T01:03:25;4.97;;;3.00;;
29320;SDS011;16323;51.130;6.612;2022-11-14T01:05:52;3.95;;;2.70;;
29320;SDS011;16323;51.130;6.612;2022-11-14T01:08:18;4.03;;;2.50;;
29320;SDS011;16323;51.130;6.612;2022-11-14T01:10:46;4.80;;;2.60;;
29320;SDS011;16323;51.130;6.612;2022-11-14T01:13:14;4.00;;;2.75;;
29320;SDS011;16323;51.130;6.612;2022-11-14T01:15:43;3.97;;;2.80;;
29320;SDS011;16323;51.130;6.612;2022-11-14T01:18:14;3.65;;;2.65;;
29320;SDS011;16323;51.130;6.612;2022-11-14T01:20:43;4.25;;;2.70;;
29320;SDS011;16323;51.130;6.612;2022-11-14T01:23:12;4.60;;;2.75;;
29320;SDS011;16323;51.130;6.612;2022-11-14T01:25:41;3.47;;;2.50;;
29320;SDS011;16323;51.130;6.612;2022-11-14T01:28:09;4.22;;;2.60;;
29320;SDS011;16323;51.130;6.612;2022-11-14T01:30:37;4.07;;;2.67;;
29320;SDS011;16323;51.130;6.612;2022-11-14T01:33:05;3.38;;;2.13;;
29320;SDS011;16323;51.130;6.612;2022-11-14T01:35:34;4.15;;;2.60;;
29320;SDS011;16323;51.130;6.612;2022-11-14T01:38:02;5.03;;;2.80;;
29320;SDS011;16323;51.130;6.612;2022-11-14T01:40:31;4.25;;;2.42;;
29320;SDS011;16323;51.130;6.612;2022-11-14T01:43:10;4.20;;;2.20;;
29320;SDS011;16323;51.130;6.612;2022-11-14T01:45:51;3.60;;;2.47;;
29320;SDS011;16323;51.130;6.612;2022-11-14T01:48:21;2.70;;;2.08;;
29320;SDS011;16323;51.130;6.612;2022-11-14T01:50:54;3.17;;;2.33;;
29320;SDS011;16323;51.130;6.612;2022-11-14T01:53:23;3.40;;;2.38;;
29320;SDS011;16323;51.130;6.612;2022-11-14T01:55:51;3.28;;;2.50;;
29320;SDS011;16323;51.130;6.612;2022-11-14T01:58:21;3.28;;;2.20;;
29320;SDS011;16323;51.130;6.612;2022-11-14T02:00:49;2.80;;;2.17;;
29320;SDS011;16323;51.130;6.612;2022-11-14T02:03:15;3.72;;;2.35;;
29320;SDS011;16323;51.130;6.612;2022-11-14T02:05:43;3.75;;;2.35;;
29320;SDS011;16323;51.130;6.612;2022-11-14T02:08:13;3.75;;;2.50;;
29320;SDS011;16323;51.130;6.612;2022-11-14T02:10:41;4.53;;;2.63;;
29320;SDS011;16323;51.130;6.612;2022-11-14T02:13:08;3.55;;;2.10;;
29320;SDS011;16323;51.130;6.612;2022-11-14T02:15:35;4.20;;;2.40;;
29320;SDS011;16323;51.130;6.612;2022-11-14T02:18:02;2.83;;;1.83;;
29320;SDS011;16323;51.130;6.612;2022-11-14T02:20:32;2.35;;;1.90;;
29320;SDS011;16323;51.130;6.612;2022-11-14T02:23:00;2.60;;;1.77;;
29320;SDS011;16323;51.130;6.612;2022-11-14T02:25:27;3.20;;;2.20;;
29320;SDS011;16323;51.130;6.612;2022-11-14T02:27:54;3.45;;;2.30;;
29320;SDS011;16323;51.130;6.612;2022-11-14T02:30:23;3.50;;;2.00;;
29320;SDS011;16323;51.130;6.612;2022-11-14T02:32:50;3.03;;;2.10;;
29320;SDS011;16323;51.130;6.612;2022-11-14T02:35:22;2.90;;;2.15;;
29320;SDS011;16323;51.130;6.612;2022-11-14T02:37:50;3.85;;;2.20;;
29320;SDS011;16323;51.130;6.612;2022-11-14T02:40:17;3.60;;;2.30;;
29320;SDS011;16323;51.130;6.612;2022-11-14T02:42:44;3.67;;;2.50;;
29320;SDS011;16323;51.130;6.612;2022-11-14T02:45:10;3.85;;;2.28;;
29320;SDS011;16323;51.130;6.612;2022-11-14T02:47:38;3.40;;;2.35;;
29320;SDS011;16323;51.130;6.612;2022-11-14T02:50:05;2.78;;;2.08;;
29320;SDS011;16323;51.130;6.612;2022-11-14T02:52:32;3.13;;;2.03;;
29320;SDS011;16323;51.130;6.612;2022-11-14T02:55:00;3.25;;;2.17;;
29320;SDS011;16323;51.130;6.612;2022-11-14T02:57:27;3.22;;;2.08;;
29320;SDS011;16323;51.130;6.612;2022-11-14T02:59:53;2.10;;;1.90;;
29320;SDS011;16323;51.130;6.612;2022-11-14T03:02:20;3.33;;;1.98;;
29320;SDS011;16323;51.130;6.612;2022-11-14T03:04:47;2.80;;;2.20;;
29320;SDS011;16323;51.130;6.612;2022-11-14T03:07:14;2.97;;;2.25;;
29320;SDS011;16323;51.130;6.612;2022-11-14T03:09:41;5.00;;;2.42;;
29320;SDS011;16323;51.130;6.612;2022-11-14T03:12:09;2.63;;;1.95;;
29320;SDS011;16323;51.130;6.612;2022-11-14T03:14:36;2.92;;;2.13;;
29320;SDS011;16323;51.130;6.612;2022-11-14T03:17:03;2.80;;;2.10;;
29320;SDS011;16323;51.130;6.612;2022-11-14T03:19:30;4.15;;;2.40;;
29320;SDS011;16323;51.130;6.612;2022-11-14T03:21:56;2.83;;;1.90;;
29320;SDS011;16323;51.130;6.612;2022-11-14T03:24:23;4.47;;;2.10;;
29320;SDS011;16323;51.130;6.612;2022-11-14T03:26:50;2.95;;;2.00;;
29320;SDS011;16323;51.130;6.612;2022-11-14T03:29:18;3.15;;;2.00;;
29320;SDS011;16323;51.130;6.612;2022-11-14T03:31:45;2.97;;;2.10;;
29320;SDS011;16323;51.130;6.612;2022-11-14T03:34:12;3.00;;;2.03;;
29320;SDS011;16323;51.130;6.612;2022-11-14T03:36:39;3.58;;;2.20;;
29320;SDS011;16323;51.130;6.612;2022-11-14T03:39:05;2.65;;;1.90;;
29320;SDS011;16323;51.130;6.612;2022-11-14T03:41:33;2.67;;;1.95;;
29320;SDS011;16323;51.130;6.612;2022-11-14T03:43:59;2.80;;;2.13;;
29320;SDS011;16323;51.130;6.612;2022-11-14T03:46:28;3.42;;;2.22;;
29320;SDS011;16323;51.130;6.612;2022-11-14T03:48:54;3.10;;;1.92;;
29320;SDS011;16323;51.130;6.612;2022-11-14T03:51:21;2.63;;;2.03;;
29320;SDS011;16323;51.130;6.612;2022-11-14T03:53:48;2.15;;;1.70;;
29320;SDS011;16323;51.130;6.612;2022-11-14T03:56:15;2.58;;;1.90;;
29320;SDS011;16323;51.130;6.612;2022-11-14T03:58:42;3.17;;;2.10;;
29320;SDS011;16323;51.130;6.612;2022-11-14T04:01:08;3.42;;;1.88;;
29320;SDS011;16323;51.130;6.612;2022-11-14T04:03:37;3.75;;;2.25;;
29320;SDS011;16323;51.130;6.612;2022-11-14T04:06:03;2.58;;;1.83;;
29320;SDS011;16323;51.130;6.612;2022-11-14T04:08:31;2.10;;;1.60;;
29320;SDS011;16323;51.130;6.612;2022-11-14T04:10:58;2.65;;;1.80;;
29320;SDS011;16323;51.130;6.612;2022-11-14T04:13:24;2.38;;;1.80;;
29320;SDS011;16323;51.130;6.612;2022-11-14T04:15:54;3.10;;;1.80;;
29320;SDS011;16323;51.130;6.612;2022-11-14T04:18:21;3.35;;;2.10;;
29320;SDS011;16323;51.130;6.612;2022-11-14T04:20:49;2.70;;;1.90;;
29320;SDS011;16323;51.130;6.612;2022-11-14T04:23:16;2.83;;;1.80;;
29320;SDS011;16323;51.130;6.612;2022-11-14T04:25:45;4.00;;;2.10;;
29320;SDS011;16323;51.130;6.612;2022-11-14T04:28:12;2.28;;;1.67;;
29320;SDS011;16323;51.130;6.612;2022-11-14T04:30:39;3.28;;;2.05;;
29320;SDS011;16323;51.130;6.612;2022-11-14T04:33:09;2.28;;;1.77;;
29320;SDS011;16323;51.130;6.612;2022-11-14T04:35:36;2.13;;;1.60;;
29320;SDS011;16323;51.130;6.612;2022-11-14T04:38:04;2.83;;;1.98;;
29320;SDS011;16323;51.130;6.612;2022-11-14T04:40:31;2.90;;;1.77;;
29320;SDS011;16323;51.130;6.612;2022-11-14T04:42:58;2.30;;;1.75;;
29320;SDS011;16323;51.130;6.612;2022-11-14T04:45:25;2.30;;;1.70;;
29320;SDS011;16323;51.130;6.612;2022-11-14T04:47:52;2.72;;;1.80;;
29320;SDS011;16323;51.130;6.612;2022-11-14T04:50:19;3.28;;;1.95;;
29320;SDS011;16323;51.130;6.612;2022-11-14T04:52:45;2.80;;;1.80;;
29320;SDS011;16323;51.130;6.612;2022-11-14T04:55:17;2.22;;;1.50;;
29320;SDS011;16323;51.130;6.612;2022-11-14T04:57:44;1.60;;;1.50;;
29320;SDS011;16323;51.130;6.612;2022-11-14T05:00:11;3.30;;;1.83;;
29320;SDS011;16323;51.130;6.612;2022-11-14T05:02:39;2.10;;;1.58;;
29320;SDS011;16323;51.130;6.612;2022-11-14T05:05:06;2.55;;;1.80;;
29320;SDS011;16323;51.130;6.612;2022-11-14T05:07:33;2.15;;;1.60;;
29320;SDS011;16323;51.130;6.612;2022-11-14T05:10:00;1.90;;;1.65;;
29320;SDS011;16323;51.130;6.612;2022-11-14T05:12:28;2.20;;;1.50;;
29320;SDS011;16323;51.130;6.612;2022-11-14T05:14:55;2.58;;;1.60;;
29320;SDS011;16323;51.130;6.612;2022-11-14T05:17:21;2.53;;;1.63;;
29320;SDS011;16323;51.130;6.612;2022-11-14T05:19:48;2.50;;;1.83;;
29320;SDS011;16323;51.130;6.612;2022-11-14T05:22:15;2.47;;;1.70;;
29320;SDS011;16323;51.130;6.612;2022-11-14T05:24:42;2.88;;;1.73;;
29320;SDS011;16323;51.130;6.612;2022-11-14T05:27:09;3.08;;;1.75;;
29320;SDS011;16323;51.130;6.612;2022-11-14T05:29:37;2.42;;;1.40;;
29320;SDS011;16323;51.130;6.612;2022-11-14T05:32:04;2.63;;;1.80;;
29320;SDS011;16323;51.130;6.612;2022-11-14T05:34:30;2.50;;;1.58;;
29320;SDS011;16323;51.130;6.612;2022-11-14T05:36:57;3.13;;;1.60;;
29320;SDS011;16323;51.130;6.612;2022-11-14T05:39:24;2.90;;;1.88;;
29320;SDS011;16323;51.130;6.612;2022-11-14T05:41:50;2.03;;;1.67;;
29320;SDS011;16323;51.130;6.612;2022-11-14T05:44:17;2.47;;;1.58;;
29320;SDS011;16323;51.130;6.612;2022-11-14T05:46:45;2.42;;;1.52;;
29320;SDS011;16323;51.130;6.612;2022-11-14T05:49:12;3.00;;;1.80;;
29320;SDS011;16323;51.130;6.612;2022-11-14T05:51:39;2.72;;;2.13;;
29320;SDS011;16323;51.130;6.612;2022-11-14T05:54:06;2.13;;;1.60;;
29320;SDS011;16323;51.130;6.612;2022-11-14T05:56:33;1.95;;;1.60;;
29320;SDS011;16323;51.130;6.612;2022-11-14T05:58:59;1.83;;;1.50;;
29320;SDS011;16323;51.130;6.612;2022-11-14T06:01:26;1.85;;;1.60;;
29320;SDS011;16323;51.130;6.612;2022-11-14T06:03:55;2.47;;;1.67;;
29320;SDS011;16323;51.130;6.612;2022-11-14T06:06:21;2.42;;;1.67;;
29320;SDS011;16323;51.130;6.612;2022-11-14T06:08:48;2.58;;;1.70;;
29320;SDS011;16323;51.130;6.612;2022-11-14T06:11:16;3.00;;;1.80;;
29320;SDS011;16323;51.130;6.612;2022-11-14T06:13:44;1.73;;;1.25;;
29320;SDS011;16323;51.130;6.612;2022-11-14T06:16:11;2.80;;;1.55;;
29320;SDS011;16323;51.130;6.612;2022-11-14T06:18:39;2.22;;;1.70;;
29320;SDS011;16323;51.130;6.612;2022-11-14T06:21:10;2.45;;;1.58;;
29320;SDS011;16323;51.130;6.612;2022-11-14T06:23:39;1.73;;;1.40;;
29320;SDS011;16323;51.130;6.612;2022-11-14T06:26:06;3.22;;;1.77;;
29320;SDS011;16323;51.130;6.612;2022-11-14T06:28:37;2.22;;;1.63;;
29320;SDS011;16323;51.130;6.612;2022-11-14T06:31:04;1.77;;;1.42;;
29320;SDS011;16323;51.130;6.612;2022-11-14T06:33:32;2.60;;;1.75;;
29320;SDS011;16323;51.130;6.612;2022-11-14T06:36:01;2.40;;;1.50;;
29320;SDS011;16323;51.130;6.612;2022-11-14T06:38:30;2.33;;;1.58;;
29320;SDS011;16323;51.130;6.612;2022-11-14T06:41:01;2.13;;;1.50;;
29320;SDS011;16323;51.130;6.612;2022-11-14T06:43:30;2.45;;;1.60;;
29320;SDS011;16323;51.130;6.612;2022-11-14T06:45:58;2.63;;;1.95;;
29320;SDS011;16323;51.130;6.612;2022-11-14T06:48:25;2.30;;;1.63;;
29320;SDS011;16323;51.130;6.612;2022-11-14T06:50:52;2.75;;;1.85;;
29320;SDS011;16323;51.130;6.612;2022-11-14T06:53:18;2.15;;;1.73;;
29320;SDS011;16323;51.130;6.612;2022-11-14T06:55:52;2.85;;;1.80;;
29320;SDS011;16323;51.130;6.612;2022-11-14T06:58:20;2.50;;;1.90;;
29320;SDS011;16323;51.130;6.612;2022-11-14T07:00:47;1.88;;;1.60;;
29320;SDS011;16323;51.130;6.612;2022-11-14T07:03:14;2.22;;;1.63;;
29320;SDS011;16323;51.130;6.612;2022-11-14T07:05:40;2.00;;;1.70;;
29320;SDS011;16323;51.130;6.612;2022-11-14T07:08:07;2.15;;;1.80;;
29320;SDS011;16323;51.130;6.612;2022-11-14T07:10:34;2.97;;;1.77;;
29320;SDS011;16323;51.130;6.612;2022-11-14T07:13:02;2.55;;;1.70;;
29320;SDS011;16323;51.130;6.612;2022-11-14T07:15:29;2.05;;;1.63;;
29320;SDS011;16323;51.130;6.612;2022-11-14T07:17:56;2.88;;;1.88;;
29320;SDS011;16323;51.130;6.612;2022-11-14T07:20:23;3.38;;;1.90;;
29320;SDS011;16323;51.130;6.612;2022-11-14T07:22:50;2.47;;;1.65;;
29320;SDS011;16323;51.130;6.612;2022-11-14T07:25:17;2.60;;;1.85;;
29320;SDS011;16323;51.130;6.612;2022-11-14T07:27:45;2.30;;;1.70;;
29320;SDS011;16323;51.130;6.612;2022-11-14T07:30:13;2.65;;;1.85;;
29320;SDS011;16323;51.130;6.612;2022-11-14T07:32:40;2.10;;;1.73;;
29320;SDS011;16323;51.130;6.612;2022-11-14T07:35:07;2.70;;;2.00;;
29320;SDS011;16323;51.130;6.612;2022-11-14T07:37:34;2.47;;;1.73;;
29320;SDS011;16323;51.130;6.612;2022-11-14T07:40:01;2.63;;;1.77;;
29320;SDS011;16323;51.130;6.612;2022-11-14T07:42:28;3.42;;;2.00;;
29320;SDS011;16323;51.130;6.612;2022-11-14T07:44:55;2.88;;;2.10;;
29320;SDS011;16323;51.130;6.612;2022-11-14T07:47:23;3.42;;;2.05;;
29320;SDS011;16323;51.130;6.612;2022-11-14T07:49:49;3.53;;;2.20;;
29320;SDS011;16323;51.130;6.612;2022-11-14T07:52:16;3.45;;;2.35;;
29320;SDS011;16323;51.130;6.612;2022-11-14T07:54:43;3.08;;;2.20;;
29320;SDS011;16323;51.130;6.612;2022-11-14T07:57:10;3.15;;;2.10;;
29320;SDS011;16323;51.130;6.612;2022-11-14T07:59:36;2.80;;;2.10;;
29320;SDS011;16323;51.130;6.612;2022-11-14T08:02:03;4.63;;;2.60;;
29320;SDS011;16323;51.130;6.612;2022-11-14T08:04:31;3.10;;;2.35;;
29320;SDS011;16323;51.130;6.612;2022-11-14T08:06:58;4.57;;;2.57;;
29320;SDS011;16323;51.130;6.612;2022-11-14T08:09:24;4.85;;;3.05;;
29320;SDS011;16323;51.130;6.612;2022-11-14T08:11:51;2.97;;;2.40;;
29320;SDS011;16323;51.130;6.612;2022-11-14T08:14:18;4.18;;;2.60;;
29320;SDS011;16323;51.130;6.612;2022-11-14T08:16:45;4.05;;;2.80;;
29320;SDS011;16323;51.130;6.612;2022-11-14T08:19:11;5.00;;;3.05;;
29320;SDS011;16323;51.130;6.612;2022-11-14T08:21:42;5.55;;;3.35;;
29320;SDS011;16323;51.130;6.612;2022-11-14T08:24:09;4.90;;;3.30;;
29320;SDS011;16323;51.130;6.612;2022-11-14T08:26:35;6.55;;;3.33;;
29320;SDS011;16323;51.130;6.612;2022-11-14T08:29:03;4.90;;;3.30;;
29320;SDS011;16323;51.130;6.612;2022-11-14T08:31:30;6.82;;;3.67;;
29320;SDS011;16323;51.130;6.612;2022-11-14T08:33:57;3.85;;;2.95;;
29320;SDS011;16323;51.130;6.612;2022-11-14T08:36:24;4.20;;;2.85;;
29320;SDS011;16323;51.130;6.612;2022-11-14T08:38:52;4.50;;;3.10;;
29320;SDS011;16323;51.130;6.612;2022-11-14T08:41:20;3.95;;;2.58;;
29320;SDS011;16323;51.130;6.612;2022-11-14T08:43:46;4.15;;;3.00;;
29320;SDS011;16323;51.130;6.612;2022-11-14T08:46:13;4.38;;;3.10;;
29320;SDS011;16323;51.130;6.612;2022-11-14T08:48:40;5.00;;;3.03;;
29320;SDS011;16323;51.130;6.612;2022-11-14T08:51:07;4.00;;;3.00;;
29320;SDS011;16323;51.130;6.612;2022-11-14T08:53:33;4.35;;;2.92;;
29320;SDS011;16323;51.130;6.612;2022-11-14T08:56:02;5.30;;;3.03;;
29320;SDS011;16323;51.130;6.612;2022-11-14T08:58:29;6.03;;;3.22;;
29320;SDS011;16323;51.130;6.612;2022-11-14T09:01:00;5.10;;;3.13;;
29320;SDS011;16323;51.130;6.612;2022-11-14T09:03:27;4.32;;;2.70;;
29320;SDS011;16323;51.130;6.612;2022-11-14T09:05:54;4.25;;;2.72;;
29320;SDS011;16323;51.130;6.612;2022-11-14T09:08:21;5.60;;;2.92;;
29320;SDS011;16323;51.130;6.612;2022-11-14T09:10:48;4.47;;;3.13;;
29320;SDS011;16323;51.130;6.612;2022-11-14T09:13:16;4.78;;;3.25;;
29320;SDS011;16323;51.130;6.612;2022-11-14T09:15:43;5.15;;;2.97;;
29320;SDS011;16323;51.130;6.612;2022-11-14T09:18:10;4.18;;;2.90;;
29320;SDS011;16323;51.130;6.612;2022-11-14T09:20:37;6.10;;;2.95;;
29320;SDS011;16323;51.130;6.612;2022-11-14T09:23:04;3.70;;;2.45;;
29320;SDS011;16323;51.130;6.612;2022-11-14T09:25:31;5.72;;;3.42;;
29320;SDS011;16323;51.130;6.612;2022-11-14T09:28:01;4.53;;;3.00;;
29320;SDS011;16323;51.130;6.612;2022-11-14T09:30:31;2.72;;;2.35;;
29320;SDS011;16323;51.130;6.612;2022-11-14T09:32:59;3.67;;;2.60;;
29320;SDS011;16323;51.130;6.612;2022-11-14T09:35:26;4.90;;;3.13;;
29320;SDS011;16323;51.130;6.612;2022-11-14T09:37:59;5.75;;;3.60;;
29320;SDS011;16323;51.130;6.612;2022-11-14T09:40:27;4.88;;;2.67;;
29320;SDS011;16323;51.130;6.612;2022-11-14T09:42:58;4.80;;;2.85;;
29320;SDS011;16323;51.130;6.612;2022-11-14T09:45:41;3.90;;;2.55;;
29320;SDS011;16323;51.130;6.612;2022-11-14T09:48:13;5.82;;;2.92;;
29320;SDS011;16323;51.130;6.612;2022-11-14T09:50:43;3.92;;;2.58;;
29320;SDS011;16323;51.130;6.612;2022-11-14T09:53:15;5.07;;;3.28;;
29320;SDS011;16323;51.130;6.612;2022-11-14T09:55:50;5.40;;;3.30;;
29320;SDS011;16323;51.130;6.612;2022-11-14T09:58:18;3.38;;;2.80;;
29320;SDS011;16323;51.130;6.612;2022-11-14T10:00:49;3.90;;;2.22;;
29320;SDS011;16323;51.130;6.612;2022-11-14T10:03:21;3.35;;;2.50;;
29320;SDS011;16323;51.130;6.612;2022-11-14T10:06:00;4.60;;;2.95;;
29320;SDS011;16323;51.130;6.612;2022-11-14T10:08:50;4.65;;;2.88;;
29320;SDS011;16323;51.130;6.612;2022-11-14T10:11:28;3.80;;;2.80;;
29320;SDS011;16323;51.130;6.612;2022-11-14T10:14:14;4.40;;;2.88;;
29320;SDS011;16323;51.130;6.612;2022-11-14T10:17:13;3.75;;;2.67;;
29320;SDS011;16323;51.130;6.612;2022-11-14T10:19:48;3.67;;;2.40;;
29320;SDS011;16323;51.130;6.612;2022-11-14T10:22:30;4.13;;;2.63;;
29320;SDS011;16323;51.130;6.612;2022-11-14T10:25:18;3.85;;;2.50;;
29320;SDS011;16323;51.130;6.612;2022-11-14T10:27:53;3.17;;;2.30;;
29320;SDS011;16323;51.130;6.612;2022-11-14T10:30:34;3.83;;;2.60;;
29320;SDS011;16323;51.130;6.612;2022-11-14T10:33:12;4.07;;;2.53;;
29320;SDS011;16323;51.130;6.612;2022-11-14T10:35:50;4.68;;;2.67;;
29320;SDS011;16323;51.130;6.612;2022-11-14T10:38:23;4.28;;;2.90;;
29320;SDS011;16323;51.130;6.612;2022-11-14T10:40:55;4.45;;;2.78;;
29320;SDS011;16323;51.130;6.612;2022-11-14T10:43:27;3.67;;;2.45;;
29320;SDS011;16323;51.130;6.612;2022-11-14T10:45:59;3.22;;;2.33;;
29320;SDS011;16323;51.130;6.612;2022-11-14T10:48:30;5.25;;;2.97;;
29320;SDS011;16323;51.130;6.612;2022-11-14T10:51:00;3.83;;;2.45;;
29320;SDS011;16323;51.130;6.612;2022-11-14T10:53:36;3.65;;;2.58;;
29320;SDS011;16323;51.130;6.612;2022-11-14T10:56:09;3.47;;;2.35;;
29320;SDS011;16323;51.130;6.612;2022-11-14T10:58:38;3.05;;;2.25;;
29320;SDS011;16323;51.130;6.612;2022-11-14T11:04:12;4.90;;;2.78;;
29320;SDS011;16323;51.130;6.612;2022-11-14T11:06:44;3.97;;;2.50;;
29320;SDS011;16323;51.130;6.612;2022-11-14T11:09:12;3.95;;;2.67;;
29320;SDS011;16323;51.130;6.612;2022-11-14T11:11:58;4.25;;;2.42;;
29320;SDS011;16323;51.130;6.612;2022-11-14T11:14:27;3.00;;;2.30;;
29320;SDS011;16323;51.130;6.612;2022-11-14T11:17:14;4.53;;;2.63;;
29320;SDS011;16323;51.130;6.612;2022-11-14T11:19:50;3.83;;;2.22;;
29320;SDS011;16323;51.130;6.612;2022-11-14T11:22:30;3.47;;;2.40;;
29320;SDS011;16323;51.130;6.612;2022-11-14T11:25:02;2.65;;;2.05;;
29320;SDS011;16323;51.130;6.612;2022-11-14T11:27:59;2.90;;;2.30;;
29320;SDS011;16323;51.130;6.612;2022-11-14T11:30:30;3.40;;;2.38;;
29320;SDS011;16323;51.130;6.612;2022-11-14T11:33:07;3.92;;;2.28;;
29320;SDS011;16323;51.130;6.612;2022-11-14T11:35:42;3.15;;;2.53;;
29320;SDS011;16323;51.130;6.612;2022-11-14T11:38:12;2.80;;;2.10;;
29320;SDS011;16323;51.130;6.612;2022-11-14T11:40:42;3.38;;;2.42;;
29320;SDS011;16323;51.130;6.612;2022-11-14T11:43:10;3.38;;;2.10;;
29320;SDS011;16323;51.130;6.612;2022-11-14T11:45:42;3.67;;;2.30;;
29320;SDS011;16323;51.130;6.612;2022-11-14T11:48:12;3.53;;;2.30;;
29320;SDS011;16323;51.130;6.612;2022-11-14T11:50:43;3.13;;;2.30;;
29320;SDS011;16323;51.130;6.612;2022-11-14T11:53:13;3.15;;;2.40;;
29320;SDS011;16323;51.130;6.612;2022-11-14T11:55:44;3.00;;;2.08;;
29320;SDS011;16323;51.130;6.612;2022-11-14T11:58:15;3.90;;;2.40;;
29320;SDS011;16323;51.130;6.612;2022-11-14T12:00:49;3.22;;;2.10;;
29320;SDS011;16323;51.130;6.612;2022-11-14T12:03:19;3.33;;;2.15;;
29320;SDS011;16323;51.130;6.612;2022-11-14T12:05:49;2.47;;;2.00;;
29320;SDS011;16323;51.130;6.612;2022-11-14T12:08:25;2.78;;;2.05;;
29320;SDS011;16323;51.130;6.612;2022-11-14T12:10:57;2.35;;;1.80;;
29320;SDS011;16323;51.130;6.612;2022-11-14T12:13:32;4.00;;;2.60;;
29320;SDS011;16323;51.130;6.612;2022-11-14T12:16:48;4.50;;;2.65;;
29320;SDS011;16323;51.130;6.612;2022-11-14T12:19:44;3.55;;;2.50;;
29320;SDS011;16323;51.130;6.612;2022-11-14T12:22:28;3.35;;;2.28;;
29320;SDS011;16323;51.130;6.612;2022-11-14T12:25:14;3.60;;;2.28;;
29320;SDS011;16323;51.130;6.612;2022-11-14T12:27:59;3.53;;;2.30;;
29320;SDS011;16323;51.130;6.612;2022-11-14T12:30:35;3.60;;;2.33;;
29320;SDS011;16323;51.130;6.612;2022-11-14T12:33:07;2.83;;;2.35;;
29320;SDS011;16323;51.130;6.612;2022-11-14T12:35:37;3.13;;;2.17;;
29320;SDS011;16323;51.130;6.612;2022-11-14T12:38:15;4.15;;;2.40;;
29320;SDS011;16323;51.130;6.612;2022-11-14T12:40:48;3.88;;;2.60;;
29320;SDS011;16323;51.130;6.612;2022-11-14T12:43:26;3.00;;;2.20;;
29320;SDS011;16323;51.130;6.612;2022-11-14T12:45:58;3.38;;;2.50;;
29320;SDS011;16323;51.130;6.612;2022-11-14T12:48:30;3.20;;;2.25;;
29320;SDS011;16323;51.130;6.612;2022-11-14T12:50:58;3.05;;;2.45;;
29320;SDS011;16323;51.130;6.612;2022-11-14T12:53:37;5.90;;;2.53;;
29320;SDS011;16323;51.130;6.612;2022-11-14T12:56:08;3.55;;;2.30;;
29320;SDS011;16323;51.130;6.612;2022-11-14T12:58:46;4.75;;;2.38;;
29320;SDS011;16323;51.130;6.612;2022-11-14T13:01:29;6.57;;;2.60;;
29320;SDS011;16323;51.130;6.612;2022-11-14T13:04:11;4.80;;;2.70;;
29320;SDS011;16323;51.130;6.612;2022-11-14T13:06:49;4.30;;;2.78;;
29320;SDS011;16323;51.130;6.612;2022-11-14T13:12:23;4.45;;;2.90;;
29320;SDS011;16323;51.130;6.612;2022-11-14T13:15:19;4.43;;;2.63;;
29320;SDS011;16323;51.130;6.612;2022-11-14T13:18:11;4.03;;;2.90;;
29320;SDS011;16323;51.130;6.612;2022-11-14T13:21:02;3.42;;;2.50;;
29320;SDS011;16323;51.130;6.612;2022-11-14T13:23:53;3.45;;;2.47;;
29320;SDS011;16323;51.130;6.612;2022-11-14T13:35:20;4.03;;;2.60;;
29320;SDS011;16323;51.130;6.612;2022-11-14T13:37:58;4.15;;;2.83;;
29320;SDS011;16323;51.130;6.612;2022-11-14T13:40:41;3.92;;;2.75;;
29320;SDS011;16323;51.130;6.612;2022-11-14T13:43:18;4.18;;;2.80;;
29320;SDS011;16323;51.130;6.612;2022-11-14T13:45:51;3.95;;;2.53;;
29320;SDS011;16323;51.130;6.612;2022-11-14T13:48:38;3.38;;;2.55;;
29320;SDS011;16323;51.130;6.612;2022-11-14T13:51:13;3.45;;;2.58;;
29320;SDS011;16323;51.130;6.612;2022-11-14T13:53:42;4.28;;;2.88;;
29320;SDS011;16323;51.130;6.612;2022-11-14T13:56:12;4.82;;;3.28;;
29320;SDS011;16323;51.130;6.612;2022-11-14T13:58:55;4.15;;;2.58;;
29320;SDS011;16323;51.130;6.612;2022-11-14T14:01:47;4.45;;;3.10;;
29320;SDS011;16323;51.130;6.612;2022-11-14T14:04:32;4.47;;;2.67;;
29320;SDS011;16323;51.130;6.612;2022-11-14T14:07:09;3.47;;;2.47;;
29320;SDS011;16323;51.130;6.612;2022-11-14T14:09:45;4.50;;;2.60;;
29320;SDS011;16323;51.130;6.612;2022-11-14T14:12:23;5.13;;;3.20;;
29320;SDS011;16323;51.130;6.612;2022-11-14T14:15:10;3.75;;;2.85;;
29320;SDS011;16323;51.130;6.612;2022-11-14T14:17:54;3.88;;;2.75;;
29320;SDS011;16323;51.130;6.612;2022-11-14T14:20:35;2.92;;;2.55;;
29320;SDS011;16323;51.130;6.612;2022-11-14T14:23:11;3.80;;;2.80;;
29320;SDS011;16323;51.130;6.612;2022-11-14T14:25:47;3.83;;;2.70;;
29320;SDS011;16323;51.130;6.612;2022-11-14T14:28:28;4.97;;;3.03;;
29320;SDS011;16323;51.130;6.612;2022-11-14T14:31:10;3.53;;;2.42;;
29320;SDS011;16323;51.130;6.612;2022-11-14T14:33:40;3.85;;;2.53;;
29320;SDS011;16323;51.130;6.612;2022-11-14T14:36:15;5.13;;;2.95;;
29320;SDS011;16323;51.130;6.612;2022-11-14T14:38:47;5.45;;;3.08;;
29320;SDS011;16323;51.130;6.612;2022-11-14T14:41:15;6.40;;;2.97;;
29320;SDS011;16323;51.130;6.612;2022-11-14T14:43:48;6.43;;;3.05;;
29320;SDS011;16323;51.130;6.612;2022-11-14T14:46:25;3.78;;;2.42;;
29320;SDS011;16323;51.130;6.612;2022-11-14T14:48:54;3.90;;;3.03;;
29320;SDS011;16323;51.130;6.612;2022-11-14T14:51:28;4.90;;;2.97;;
29320;SDS011;16323;51.130;6.612;2022-11-14T14:53:56;3.65;;;2.60;;
29320;SDS011;16323;51.130;6.612;2022-11-14T14:56:23;4.30;;;2.80;;
29320;SDS011;16323;51.130;6.612;2022-11-14T14:58:51;4.32;;;2.80;;
29320;SDS011;16323;51.130;6.612;2022-11-14T15:01:19;3.92;;;2.70;;
29320;SDS011;16323;51.130;6.612;2022-11-14T15:03:52;3.50;;;2.45;;
29320;SDS011;16323;51.130;6.612;2022-11-14T15:06:24;3.33;;;2.58;;
29320;SDS011;16323;51.130;6.612;2022-11-14T15:08:55;4.13;;;2.90;;
29320;SDS011;16323;51.130;6.612;2022-11-14T15:11:22;3.65;;;2.78;;
29320;SDS011;16323;51.130;6.612;2022-11-14T15:13:52;3.67;;;2.83;;
29320;SDS011;16323;51.130;6.612;2022-11-14T15:16:22;3.13;;;2.35;;
29320;SDS011;16323;51.130;6.612;2022-11-14T15:18:52;4.30;;;2.92;;
29320;SDS011;16323;51.130;6.612;2022-11-14T15:21:25;3.35;;;2.65;;
29320;SDS011;16323;51.130;6.612;2022-11-14T15:23:56;3.75;;;2.40;;
29320;SDS011;16323;51.130;6.612;2022-11-14T15:26:24;4.55;;;2.97;;